sensor_id;sensor_type;location;lat;lon;timestamp;pressure;altitude;pressure_sealevel;temperature;humidity
35649;BME280;21768;48.562;13.414;2023-04-28T00:00:49;97444.44;;;9.23;58.89
35649;BME280;21768;48.562;13.414;2023-04-28T00:03:15;97441.16;;;9.24;59.07
35649;BME280;21768;48.562;13.414;2023-04-28T00:05:40;97433.38;;;9.20;58.96
35649;BME280;21768;48.562;13.414;2023-04-28T00:08:06;97435.13;;;9.21;59.17
35649;BME280;21768;48.562;13.414;2023-04-28T00:10:31;97437.66;;;9.21;59.42
35649;BME280;21768;48.562;13.414;2023-04-28T00:12:56;97429.13;;;9.19;59.30
35649;BME280;21768;48.562;13.414;2023-04-28T00:15:22;97430.88;;;9.20;59.45
35649;BME280;21768;48.562;13.414;2023-04-28T00:17:47;97426.06;;;9.24;59.60
35649;BME280;21768;48.562;13.414;2023-04-28T00:20:13;97422.09;;;9.27;59.57
35649;BME280;21768;48.562;13.414;2023-04-28T00:22:38;97422.22;;;9.29;59.44
35649;BME280;21768;48.562;13.414;2023-04-28T00:25:05;97420.47;;;9.28;59.59
35649;BME280;21768;48.562;13.414;2023-04-28T00:27:32;97408.53;;;9.25;59.77
35649;BME280;21768;48.562;13.414;2023-04-28T00:29:57;97411.81;;;9.24;59.68
35649;BME280;21768;48.562;13.414;2023-04-28T00:32:23;97410.72;;;9.20;59.89
35649;BME280;21768;48.562;13.414;2023-04-28T00:34:48;97414.34;;;9.24;60.01
35649;BME280;21768;48.562;13.414;2023-04-28T00:37:13;97417.06;;;9.27;59.66
35649;BME280;21768;48.562;13.414;2023-04-28T00:39:39;97403.81;;;9.30;59.72
35649;BME280;21768;48.562;13.414;2023-04-28T00:42:06;97413.13;;;9.31;59.78
35649;BME280;21768;48.562;13.414;2023-04-28T00:44:31;97414.44;;;9.37;59.63
35649;BME280;21768;48.562;13.414;2023-04-28T00:46:58;97409.41;;;9.37;59.67
35649;BME280;21768;48.562;13.414;2023-04-28T00:49:24;97408.31;;;9.34;59.77
35649;BME280;21768;48.562;13.414;2023-04-28T00:51:50;97408.09;;;9.31;59.75
35649;BME280;21768;48.562;13.414;2023-04-28T00:54:15;97396.81;;;9.26;60.14
35649;BME280;21768;48.562;13.414;2023-04-28T00:56:42;97404.94;;;9.21;60.19
35649;BME280;21768;48.562;13.414;2023-04-28T00:59:08;97394.63;;;9.18;60.25
35649;BME280;21768;48.562;13.414;2023-04-28T01:01:34;97388.84;;;9.19;60.02
35649;BME280;21768;48.562;13.414;2023-04-28T01:03:59;97398.16;;;9.20;59.91
35649;BME280;21768;48.562;13.414;2023-04-28T01:06:26;97400.66;;;9.20;60.03
35649;BME280;21768;48.562;13.414;2023-04-28T01:08:51;97392.88;;;9.17;60.03
35649;BME280;21768;48.562;13.414;2023-04-28T01:11:17;97388.63;;;9.16;60.07
35649;BME280;21768;48.562;13.414;2023-04-28T01:13:43;97386.91;;;9.15;59.78
35649;BME280;21768;48.562;13.414;2023-04-28T01:16:08;97381.88;;;9.15;59.95
35649;BME280;21768;48.562;13.414;2023-04-28T01:18:34;97390.38;;;9.17;59.72
35649;BME280;21768;48.562;13.414;2023-04-28T01:20:59;97385.56;;;9.20;59.86
35649;BME280;21768;48.562;13.414;2023-04-28T01:23:25;97382.94;;;9.19;59.92
35649;BME280;21768;48.562;13.414;2023-04-28T01:25:50;97388.28;;;9.24;60.09
35649;BME280;21768;48.562;13.414;2023-04-28T01:28:16;97380.75;;;9.24;59.66
35649;BME280;21768;48.562;13.414;2023-04-28T01:30:41;97387.84;;;9.17;59.76
35649;BME280;21768;48.562;13.414;2023-04-28T01:33:06;97393.75;;;9.18;59.86
35649;BME280;21768;48.562;13.414;2023-04-28T01:35:32;97387.97;;;9.19;60.04
35649;BME280;21768;48.562;13.414;2023-04-28T01:37:57;97387.09;;;9.18;60.07
35649;BME280;21768;48.562;13.414;2023-04-28T01:40:23;97392.88;;;9.17;60.12
35649;BME280;21768;48.562;13.414;2023-04-28T01:42:48;97386.69;;;9.12;60.05
35649;BME280;21768;48.562;13.414;2023-04-28T01:45:14;97385.47;;;9.07;60.41
35649;BME280;21768;48.562;13.414;2023-04-28T01:47:39;97393.91;;;9.08;60.47
35649;BME280;21768;48.562;13.414;2023-04-28T01:50:05;97393.91;;;9.08;60.70
35649;BME280;21768;48.562;13.414;2023-04-28T01:52:30;97398.94;;;9.08;60.71
35649;BME280;21768;48.562;13.414;2023-04-28T01:54:56;97399.81;;;9.08;60.65
35649;BME280;21768;48.562;13.414;2023-04-28T01:57:21;97394.47;;;9.04;60.65
35649;BME280;21768;48.562;13.414;2023-04-28T01:59:47;97398.28;;;8.99;60.94
35649;BME280;21768;48.562;13.414;2023-04-28T02:02:12;97388.09;;;8.97;60.86
35649;BME280;21768;48.562;13.414;2023-04-28T02:04:38;97389.09;;;8.99;60.97
35649;BME280;21768;48.562;13.414;2023-04-28T02:07:04;97390.09;;;9.01;60.62
35649;BME280;21768;48.562;13.414;2023-04-28T02:09:30;97381.88;;;9.04;60.87
35649;BME280;21768;48.562;13.414;2023-04-28T02:11:55;97367.44;;;9.01;60.76
35649;BME280;21768;48.562;13.414;2023-04-28T02:14:20;97388.34;;;9.00;60.85
35649;BME280;21768;48.562;13.414;2023-04-28T02:16:46;97377.28;;;8.98;60.79
35649;BME280;21768;48.562;13.414;2023-04-28T02:19:11;97382.09;;;8.95;60.83
35649;BME280;21768;48.562;13.414;2023-04-28T02:21:37;97383.72;;;8.95;60.89
35649;BME280;21768;48.562;13.414;2023-04-28T02:24:02;97381.88;;;8.92;61.07
35649;BME280;21768;48.562;13.414;2023-04-28T02:26:28;97381.88;;;8.92;61.09
35649;BME280;21768;48.562;13.414;2023-04-28T02:28:53;97380.34;;;8.94;61.16
35649;BME280;21768;48.562;13.414;2023-04-28T02:31:19;97381.97;;;8.94;61.01
35649;BME280;21768;48.562;13.414;2023-04-28T02:33:45;97372.78;;;8.94;61.11
35649;BME280;21768;48.562;13.414;2023-04-28T02:36:10;97382.09;;;8.95;61.24
35649;BME280;21768;48.562;13.414;2023-04-28T02:38:36;97370.84;;;8.90;61.28
35649;BME280;21768;48.562;13.414;2023-04-28T02:41:03;97369.88;;;8.88;61.14
35649;BME280;21768;48.562;13.414;2023-04-28T02:43:29;97367.34;;;8.88;61.20
35649;BME280;21768;48.562;13.414;2023-04-28T02:45:55;97366.38;;;8.86;61.06
35649;BME280;21768;48.562;13.414;2023-04-28T02:48:21;97368.13;;;8.87;61.38
35649;BME280;21768;48.562;13.414;2023-04-28T02:50:47;97374.91;;;8.88;61.56
35649;BME280;21768;48.562;13.414;2023-04-28T02:53:12;97363.09;;;8.87;61.45
35649;BME280;21768;48.562;13.414;2023-04-28T02:55:38;97359.38;;;8.82;61.62
35649;BME280;21768;48.562;13.414;2023-04-28T02:58:03;97368.44;;;8.80;61.45
35649;BME280;21768;48.562;13.414;2023-04-28T03:00:29;97364.72;;;8.75;61.63
35649;BME280;21768;48.562;13.414;2023-04-28T03:02:54;97360.03;;;8.79;61.77
35649;BME280;21768;48.562;13.414;2023-04-28T03:05:20;97360.91;;;8.80;61.64
35649;BME280;21768;48.562;13.414;2023-04-28T03:07:45;97359.38;;;8.82;61.48
35649;BME280;21768;48.562;13.414;2023-04-28T03:10:11;97364.63;;;8.85;61.74
35649;BME280;21768;48.562;13.414;2023-04-28T03:12:36;97361.34;;;8.86;61.66
35649;BME280;21768;48.562;13.414;2023-04-28T03:15:02;97355.84;;;8.92;61.92
35649;BME280;21768;48.562;13.414;2023-04-28T03:17:27;97348.22;;;8.90;61.60
35649;BME280;21768;48.562;13.414;2023-04-28T03:19:52;97335.81;;;8.93;61.55
35649;BME280;21768;48.562;13.414;2023-04-28T03:22:18;97337.28;;;8.90;61.54
35649;BME280;21768;48.562;13.414;2023-04-28T03:24:43;97335.09;;;8.82;61.95
35649;BME280;21768;48.562;13.414;2023-04-28T03:27:09;97323.38;;;8.83;61.79
35649;BME280;21768;48.562;13.414;2023-04-28T03:29:34;97319.34;;;8.85;61.67
35649;BME280;21768;48.562;13.414;2023-04-28T03:32:00;97325.91;;;8.83;61.60
35649;BME280;21768;48.562;13.414;2023-04-28T03:34:25;97337.50;;;8.81;61.61
35649;BME280;21768;48.562;13.414;2023-04-28T03:36:51;97338.25;;;8.80;61.77
35649;BME280;21768;48.562;13.414;2023-04-28T03:39:16;97346.91;;;8.72;61.58
35649;BME280;21768;48.562;13.414;2023-04-28T03:41:41;97335.56;;;8.65;61.71
35649;BME280;21768;48.562;13.414;2023-04-28T03:44:07;97334.88;;;8.68;61.86
35649;BME280;21768;48.562;13.414;2023-04-28T03:46:32;97333.13;;;8.67;62.02
35649;BME280;21768;48.562;13.414;2023-04-28T03:48:59;97337.28;;;8.66;62.06
35649;BME280;21768;48.562;13.414;2023-04-28T03:51:27;97340.38;;;8.62;62.15
35649;BME280;21768;48.562;13.414;2023-04-28T03:53:53;97341.00;;;8.60;61.95
35649;BME280;21768;48.562;13.414;2023-04-28T03:56:18;97344.28;;;8.59;62.19
35649;BME280;21768;48.562;13.414;2023-04-28T03:58:44;97350.19;;;8.59;62.30
35649;BME280;21768;48.562;13.414;2023-04-28T04:01:09;97335.22;;;8.61;62.11
35649;BME280;21768;48.562;13.414;2023-04-28T04:03:34;97334.22;;;8.59;62.05
35649;BME280;21768;48.562;13.414;2023-04-28T04:06:00;97337.50;;;8.58;62.06
35649;BME280;21768;48.562;13.414;2023-04-28T04:08:26;97325.81;;;8.58;62.42
35649;BME280;21768;48.562;13.414;2023-04-28T04:10:52;97325.94;;;8.60;62.34
35649;BME280;21768;48.562;13.414;2023-04-28T04:13:19;97322.97;;;8.65;62.50
35649;BME280;21768;48.562;13.414;2023-04-28T04:15:44;97320.66;;;8.68;62.69
35649;BME280;21768;48.562;13.414;2023-04-28T04:18:10;97331.59;;;8.69;62.69
35649;BME280;21768;48.562;13.414;2023-04-28T04:20:35;97327.66;;;8.72;63.13
35649;BME280;21768;48.562;13.414;2023-04-28T04:23:01;97329.84;;;8.79;62.69
35649;BME280;21768;48.562;13.414;2023-04-28T04:25:27;97316.59;;;8.82;62.68
35649;BME280;21768;48.562;13.414;2023-04-28T04:27:53;97306.88;;;8.86;62.72
35649;BME280;21768;48.562;13.414;2023-04-28T04:30:19;97307.28;;;8.93;62.43
35649;BME280;21768;48.562;13.414;2023-04-28T04:32:44;97316.88;;;8.98;62.63
35649;BME280;21768;48.562;13.414;2023-04-28T04:35:09;97317.31;;;9.04;62.31
35649;BME280;21768;48.562;13.414;2023-04-28T04:37:35;97319.28;;;9.08;61.76
35649;BME280;21768;48.562;13.414;2023-04-28T04:40:00;97314.69;;;9.14;61.68
35649;BME280;21768;48.562;13.414;2023-04-28T04:42:26;97315.94;;;9.21;62.21
35649;BME280;21768;48.562;13.414;2023-04-28T04:44:51;97323.47;;;9.33;61.80
35649;BME280;21768;48.562;13.414;2023-04-28T04:47:16;97318.69;;;9.49;61.53
35649;BME280;21768;48.562;13.414;2023-04-28T04:49:43;97315.59;;;9.65;61.07
35649;BME280;21768;48.562;13.414;2023-04-28T04:52:08;97317.47;;;9.80;60.80
35649;BME280;21768;48.562;13.414;2023-04-28T04:54:34;97313.22;;;9.93;60.74
35649;BME280;21768;48.562;13.414;2023-04-28T04:56:59;97319.84;;;10.04;60.87
35649;BME280;21768;48.562;13.414;2023-04-28T04:59:25;97316.34;;;10.15;60.56
35649;BME280;21768;48.562;13.414;2023-04-28T05:01:52;97308.47;;;10.22;60.88
35649;BME280;21768;48.562;13.414;2023-04-28T05:04:17;97310.81;;;10.32;60.84
35649;BME280;21768;48.562;13.414;2023-04-28T05:06:43;97324.75;;;10.40;59.89
35649;BME280;21768;48.562;13.414;2023-04-28T05:09:08;97312.75;;;10.36;60.13
35649;BME280;21768;48.562;13.414;2023-04-28T05:11:34;97311.78;;;10.34;60.46
35649;BME280;21768;48.562;13.414;2023-04-28T05:13:59;97312.56;;;10.33;60.80
35649;BME280;21768;48.562;13.414;2023-04-28T05:16:25;97307.97;;;10.28;60.61
35649;BME280;21768;48.562;13.414;2023-04-28T05:18:51;97309.06;;;10.31;59.85
35649;BME280;21768;48.562;13.414;2023-04-28T05:21:17;97306.94;;;10.37;59.88
35649;BME280;21768;48.562;13.414;2023-04-28T05:23:42;97297.13;;;10.42;60.20
35649;BME280;21768;48.562;13.414;2023-04-28T05:26:08;97293.91;;;10.44;60.40
35649;BME280;21768;48.562;13.414;2023-04-28T05:28:33;97288.41;;;10.50;60.19
35649;BME280;21768;48.562;13.414;2023-04-28T05:30:59;97291.72;;;10.62;60.05
35649;BME280;21768;48.562;13.414;2023-04-28T05:33:24;97294.31;;;10.77;59.73
35649;BME280;21768;48.562;13.414;2023-04-28T05:35:49;97307.50;;;10.86;59.04
35649;BME280;21768;48.562;13.414;2023-04-28T05:38:16;97301.94;;;10.91;58.69
35649;BME280;21768;48.562;13.414;2023-04-28T05:40:41;97303.19;;;10.98;58.53
35649;BME280;21768;48.562;13.414;2023-04-28T05:43:06;97305.13;;;11.02;58.06
35649;BME280;21768;48.562;13.414;2023-04-28T05:45:32;97297.16;;;11.09;57.98
35649;BME280;21768;48.562;13.414;2023-04-28T05:47:57;97293.06;;;11.11;58.12
35649;BME280;21768;48.562;13.414;2023-04-28T05:50:22;97284.00;;;11.15;57.58
35649;BME280;21768;48.562;13.414;2023-04-28T05:52:48;97284.66;;;11.25;57.91
35649;BME280;21768;48.562;13.414;2023-04-28T05:55:13;97293.00;;;11.38;58.10
35649;BME280;21768;48.562;13.414;2023-04-28T05:57:39;97287.09;;;11.52;57.64
35649;BME280;21768;48.562;13.414;2023-04-28T06:00:05;97287.28;;;11.70;57.17
35649;BME280;21768;48.562;13.414;2023-04-28T06:02:31;97283.41;;;11.89;56.75
35649;BME280;21768;48.562;13.414;2023-04-28T06:04:56;97279.44;;;12.08;56.47
35649;BME280;21768;48.562;13.414;2023-04-28T06:07:22;97272.44;;;12.18;55.66
35649;BME280;21768;48.562;13.414;2023-04-28T06:09:47;97261.44;;;12.33;54.95
35649;BME280;21768;48.562;13.414;2023-04-28T06:12:12;97267.97;;;12.44;54.84
35649;BME280;21768;48.562;13.414;2023-04-28T06:14:38;97265.41;;;12.58;55.21
35649;BME280;21768;48.562;13.414;2023-04-28T06:17:04;97265.00;;;12.82;55.04
35649;BME280;21768;48.562;13.414;2023-04-28T06:19:30;97261.25;;;13.06;54.63
35649;BME280;21768;48.562;13.414;2023-04-28T06:21:56;97254.00;;;13.28;54.76
35649;BME280;21768;48.562;13.414;2023-04-28T06:24:21;97260.00;;;13.47;53.22
35649;BME280;21768;48.562;13.414;2023-04-28T06:26:46;97261.28;;;13.55;53.20
35649;BME280;21768;48.562;13.414;2023-04-28T06:29:12;97260.78;;;13.62;53.91
35649;BME280;21768;48.562;13.414;2023-04-28T06:31:37;97263.16;;;13.75;53.09
35649;BME280;21768;48.562;13.414;2023-04-28T06:34:03;97265.22;;;13.82;52.67
35649;BME280;21768;48.562;13.414;2023-04-28T06:36:28;97272.53;;;13.94;51.79
35649;BME280;21768;48.562;13.414;2023-04-28T06:38:53;97259.28;;;14.00;51.19
35649;BME280;21768;48.562;13.414;2023-04-28T06:41:19;97256.13;;;14.04;50.90
35649;BME280;21768;48.562;13.414;2023-04-28T06:43:45;97252.56;;;14.00;51.06
35649;BME280;21768;48.562;13.414;2023-04-28T06:46:10;97247.78;;;14.06;51.19
35649;BME280;21768;48.562;13.414;2023-04-28T06:48:36;97239.31;;;14.06;50.77
35649;BME280;21768;48.562;13.414;2023-04-28T06:51:02;97249.72;;;14.12;50.65
35649;BME280;21768;48.562;13.414;2023-04-28T06:53:28;97243.53;;;14.23;50.21
35649;BME280;21768;48.562;13.414;2023-04-28T06:55:53;97243.81;;;14.29;50.21
35649;BME280;21768;48.562;13.414;2023-04-28T06:58:19;97249.38;;;14.40;50.50
35649;BME280;21768;48.562;13.414;2023-04-28T07:00:44;97242.97;;;14.46;49.61
35649;BME280;21768;48.562;13.414;2023-04-28T07:03:10;97247.63;;;14.55;49.45
35649;BME280;21768;48.562;13.414;2023-04-28T07:05:35;97256.88;;;14.72;49.53
35649;BME280;21768;48.562;13.414;2023-04-28T07:08:01;97250.03;;;14.89;49.38
35649;BME280;21768;48.562;13.414;2023-04-28T07:10:26;97250.59;;;15.01;49.08
35649;BME280;21768;48.562;13.414;2023-04-28T07:12:52;97250.00;;;15.07;50.13
35649;BME280;21768;48.562;13.414;2023-04-28T07:15:17;97248.66;;;15.15;49.78
35649;BME280;21768;48.562;13.414;2023-04-28T07:17:42;97243.78;;;15.19;49.33
35649;BME280;21768;48.562;13.414;2023-04-28T07:20:08;97232.97;;;15.23;49.53
35649;BME280;21768;48.562;13.414;2023-04-28T07:22:33;97227.22;;;15.27;49.63
35649;BME280;21768;48.562;13.414;2023-04-28T07:24:59;97231.09;;;15.19;48.17
35649;BME280;21768;48.562;13.414;2023-04-28T07:27:24;97235.56;;;15.06;48.51
35649;BME280;21768;48.562;13.414;2023-04-28T07:29:50;97237.38;;;15.08;47.60
35649;BME280;21768;48.562;13.414;2023-04-28T07:32:15;97241.59;;;15.08;49.06
35649;BME280;21768;48.562;13.414;2023-04-28T07:34:40;97236.03;;;15.16;48.01
35649;BME280;21768;48.562;13.414;2023-04-28T07:37:06;97232.16;;;15.24;47.44
35649;BME280;21768;48.562;13.414;2023-04-28T07:39:32;97219.66;;;15.29;47.57
35649;BME280;21768;48.562;13.414;2023-04-28T07:42:01;97231.88;;;15.38;47.29
35649;BME280;21768;48.562;13.414;2023-04-28T07:44:27;97232.28;;;15.47;46.87
35649;BME280;21768;48.562;13.414;2023-04-28T07:46:53;97229.47;;;15.60;46.81
35649;BME280;21768;48.562;13.414;2023-04-28T07:49:19;97235.97;;;15.73;46.60
35649;BME280;21768;48.562;13.414;2023-04-28T07:51:44;97227.88;;;15.81;46.50
35649;BME280;21768;48.562;13.414;2023-04-28T07:54:10;97228.50;;;15.96;45.98
35649;BME280;21768;48.562;13.414;2023-04-28T07:56:36;97232.28;;;16.06;45.67
35649;BME280;21768;48.562;13.414;2023-04-28T07:59:01;97218.19;;;16.14;45.10
35649;BME280;21768;48.562;13.414;2023-04-28T08:01:26;97216.38;;;16.12;44.63
35649;BME280;21768;48.562;13.414;2023-04-28T08:03:52;97217.88;;;16.07;44.74
35649;BME280;21768;48.562;13.414;2023-04-28T08:06:19;97212.91;;;16.10;44.40
35649;BME280;21768;48.562;13.414;2023-04-28T08:08:44;97215.50;;;16.11;44.47
35649;BME280;21768;48.562;13.414;2023-04-28T08:11:10;97218.50;;;16.22;44.85
35649;BME280;21768;48.562;13.414;2023-04-28T08:13:35;97211.78;;;16.24;44.66
35649;BME280;21768;48.562;13.414;2023-04-28T08:16:00;97209.06;;;16.19;44.15
35649;BME280;21768;48.562;13.414;2023-04-28T08:18:27;97209.78;;;16.17;44.35
35649;BME280;21768;48.562;13.414;2023-04-28T08:20:53;97211.41;;;16.15;44.48
35649;BME280;21768;48.562;13.414;2023-04-28T08:23:18;97201.09;;;16.12;44.23
35649;BME280;21768;48.562;13.414;2023-04-28T08:25:44;97200.41;;;16.16;44.10
35649;BME280;21768;48.562;13.414;2023-04-28T08:28:11;97208.06;;;16.16;43.93
35649;BME280;21768;48.562;13.414;2023-04-28T08:30:36;97201.22;;;16.15;43.90
35649;BME280;21768;48.562;13.414;2023-04-28T08:33:03;97204.75;;;16.18;43.17
35649;BME280;21768;48.562;13.414;2023-04-28T08:35:28;97201.53;;;16.22;43.30
35649;BME280;21768;48.562;13.414;2023-04-28T08:37:54;97202.97;;;16.16;43.65
35649;BME280;21768;48.562;13.414;2023-04-28T08:40:19;97204.50;;;16.12;43.03
35649;BME280;21768;48.562;13.414;2023-04-28T08:42:46;97196.13;;;16.15;43.23
35649;BME280;21768;48.562;13.414;2023-04-28T08:45:13;97202.28;;;16.20;43.15
35649;BME280;21768;48.562;13.414;2023-04-28T08:47:42;97203.41;;;16.26;42.72
35649;BME280;21768;48.562;13.414;2023-04-28T08:50:12;97205.69;;;16.20;42.82
35649;BME280;21768;48.562;13.414;2023-04-28T08:52:39;97216.31;;;16.10;43.11
35649;BME280;21768;48.562;13.414;2023-04-28T08:57:36;97220.34;;;15.84;44.49
35649;BME280;21768;48.562;13.414;2023-04-28T09:00:02;97230.63;;;15.87;45.53
35649;BME280;21768;48.562;13.414;2023-04-28T09:02:28;97222.06;;;15.85;44.67
35649;BME280;21768;48.562;13.414;2023-04-28T09:04:53;97232.50;;;15.91;45.80
35649;BME280;21768;48.562;13.414;2023-04-28T09:07:19;97233.16;;;16.07;45.83
35649;BME280;21768;48.562;13.414;2023-04-28T09:09:44;97225.59;;;16.08;45.78
35649;BME280;21768;48.562;13.414;2023-04-28T09:12:10;97226.56;;;15.91;45.36
35649;BME280;21768;48.562;13.414;2023-04-28T09:14:37;97228.81;;;15.83;45.75
35649;BME280;21768;48.562;13.414;2023-04-28T09:17:09;97229.41;;;15.78;46.63
35649;BME280;21768;48.562;13.414;2023-04-28T09:19:36;97221.84;;;15.79;46.29
35649;BME280;21768;48.562;13.414;2023-04-28T09:22:03;97227.81;;;15.80;46.77
35649;BME280;21768;48.562;13.414;2023-04-28T09:24:38;97222.84;;;15.83;46.55
35649;BME280;21768;48.562;13.414;2023-04-28T09:27:05;97230.50;;;15.84;46.14
35649;BME280;21768;48.562;13.414;2023-04-28T09:29:36;97227.16;;;15.85;47.29
35649;BME280;21768;48.562;13.414;2023-04-28T09:32:18;97225.94;;;15.96;46.72
35649;BME280;21768;48.562;13.414;2023-04-28T09:34:46;97228.34;;;15.93;45.99
35649;BME280;21768;48.562;13.414;2023-04-28T09:37:22;97218.50;;;15.80;45.64
35649;BME280;21768;48.562;13.414;2023-04-28T09:39:51;97224.25;;;15.76;46.12
35649;BME280;21768;48.562;13.414;2023-04-28T09:42:41;97228.34;;;15.73;46.22
35649;BME280;21768;48.562;13.414;2023-04-28T09:45:09;97224.88;;;15.71;46.32
35649;BME280;21768;48.562;13.414;2023-04-28T09:47:37;97222.50;;;15.75;46.91
35649;BME280;21768;48.562;13.414;2023-04-28T09:50:09;97229.47;;;15.60;47.19
35649;BME280;21768;48.562;13.414;2023-04-28T09:52:40;97229.28;;;15.55;47.98
35649;BME280;21768;48.562;13.414;2023-04-28T09:55:07;97223.84;;;15.67;47.60
35649;BME280;21768;48.562;13.414;2023-04-28T09:57:37;97215.81;;;15.77;49.48
35649;BME280;21768;48.562;13.414;2023-04-28T10:00:04;97214.03;;;15.95;47.36
35649;BME280;21768;48.562;13.414;2023-04-28T10:02:32;97219.38;;;16.02;48.52
35649;BME280;21768;48.562;13.414;2023-04-28T10:04:58;97215.28;;;16.05;47.81
35649;BME280;21768;48.562;13.414;2023-04-28T10:07:25;97209.25;;;16.03;47.67
35649;BME280;21768;48.562;13.414;2023-04-28T10:09:51;97206.66;;;16.02;47.57
35649;BME280;21768;48.562;13.414;2023-04-28T10:12:21;97203.84;;;15.95;47.36
35649;BME280;21768;48.562;13.414;2023-04-28T10:14:47;97205.06;;;15.84;49.05
35649;BME280;21768;48.562;13.414;2023-04-28T10:17:20;97198.00;;;15.77;49.15
35649;BME280;21768;48.562;13.414;2023-04-28T10:19:47;97199.97;;;15.84;49.92
35649;BME280;21768;48.562;13.414;2023-04-28T10:25:23;97192.84;;;15.76;49.91
35649;BME280;21768;48.562;13.414;2023-04-28T10:27:49;97185.72;;;15.88;49.88
35649;BME280;21768;48.562;13.414;2023-04-28T10:30:17;97189.94;;;15.87;49.20
35649;BME280;21768;48.562;13.414;2023-04-28T10:32:43;97180.28;;;15.79;49.22
35649;BME280;21768;48.562;13.414;2023-04-28T10:40:47;97184.16;;;15.71;50.88
35649;BME280;21768;48.562;13.414;2023-04-28T10:45:57;97183.59;;;15.57;49.90
35649;BME280;21768;48.562;13.414;2023-04-28T10:56:16;97170.72;;;15.35;52.53
35649;BME280;21768;48.562;13.414;2023-04-28T10:58:50;97177.56;;;15.36;52.54
35649;BME280;21768;48.562;13.414;2023-04-28T11:14:37;97174.09;;;14.95;54.78
35649;BME280;21768;48.562;13.414;2023-04-28T11:17:07;97184.72;;;14.86;54.90
35649;BME280;21768;48.562;13.414;2023-04-28T11:19:35;97182.00;;;14.82;56.47
35649;BME280;21768;48.562;13.414;2023-04-28T11:22:03;97172.50;;;14.78;57.01
35649;BME280;21768;48.562;13.414;2023-04-28T11:24:34;97176.50;;;14.73;57.64
35649;BME280;21768;48.562;13.414;2023-04-28T11:26:59;97179.28;;;14.59;58.01
35649;BME280;21768;48.562;13.414;2023-04-28T11:31:55;97175.00;;;14.41;59.19
35649;BME280;21768;48.562;13.414;2023-04-28T11:34:21;97172.31;;;14.38;59.93
35649;BME280;21768;48.562;13.414;2023-04-28T11:36:47;97181.66;;;14.21;61.13
35649;BME280;21768;48.562;13.414;2023-04-28T11:39:13;97171.88;;;14.11;61.27
35649;BME280;21768;48.562;13.414;2023-04-28T11:41:43;97171.59;;;14.05;62.03
35649;BME280;21768;48.562;13.414;2023-04-28T11:46:45;97180.59;;;13.98;63.32
35649;BME280;21768;48.562;13.414;2023-04-28T11:49:15;97181.00;;;13.89;63.88
35649;BME280;21768;48.562;13.414;2023-04-28T11:51:40;97181.72;;;13.87;64.00
35649;BME280;21768;48.562;13.414;2023-04-28T11:54:07;97185.22;;;13.89;63.94
35649;BME280;21768;48.562;13.414;2023-04-28T11:56:39;97172.38;;;13.86;64.38
35649;BME280;21768;48.562;13.414;2023-04-28T11:59:12;97178.31;;;13.86;65.12
35649;BME280;21768;48.562;13.414;2023-04-28T12:01:48;97176.38;;;13.99;65.21
35649;BME280;21768;48.562;13.414;2023-04-28T12:04:36;97173.34;;;14.06;64.62
35649;BME280;21768;48.562;13.414;2023-04-28T12:09:31;97161.81;;;13.94;65.58
35649;BME280;21768;48.562;13.414;2023-04-28T12:11:59;97164.19;;;13.91;66.34
35649;BME280;21768;48.562;13.414;2023-04-28T12:14:26;97160.44;;;13.83;66.48
35649;BME280;21768;48.562;13.414;2023-04-28T12:16:52;97162.03;;;13.81;66.62
35649;BME280;21768;48.562;13.414;2023-04-28T12:19:18;97164.91;;;13.71;66.83
35649;BME280;21768;48.562;13.414;2023-04-28T12:22:01;97170.69;;;13.69;67.44
35649;BME280;21768;48.562;13.414;2023-04-28T12:24:27;97174.75;;;13.65;67.68
35649;BME280;21768;48.562;13.414;2023-04-28T12:26:53;97167.66;;;13.58;67.80
35649;BME280;21768;48.562;13.414;2023-04-28T12:29:37;97170.66;;;13.51;68.15
35649;BME280;21768;48.562;13.414;2023-04-28T12:32:07;97176.38;;;13.47;68.23
35649;BME280;21768;48.562;13.414;2023-04-28T12:34:33;97171.78;;;13.40;68.42
35649;BME280;21768;48.562;13.414;2023-04-28T12:37:00;97172.22;;;13.31;68.68
35649;BME280;21768;48.562;13.414;2023-04-28T12:39:26;97180.44;;;13.27;69.10
35649;BME280;21768;48.562;13.414;2023-04-28T12:41:51;97173.09;;;13.32;68.98
35649;BME280;21768;48.562;13.414;2023-04-28T12:44:20;97157.88;;;13.32;69.30
35649;BME280;21768;48.562;13.414;2023-04-28T12:46:46;97130.81;;;13.31;69.56
35649;BME280;21768;48.562;13.414;2023-04-28T12:49:12;97110.53;;;13.31;70.21
35649;BME280;21768;48.562;13.414;2023-04-28T12:51:38;97105.75;;;13.37;70.49
35649;BME280;21768;48.562;13.414;2023-04-28T12:54:04;97115.69;;;13.50;70.52
35649;BME280;21768;48.562;13.414;2023-04-28T12:56:29;97129.03;;;13.63;70.39
35649;BME280;21768;48.562;13.414;2023-04-28T12:58:54;97135.34;;;13.54;69.84
35649;BME280;21768;48.562;13.414;2023-04-28T13:01:20;97129.88;;;13.46;70.44
35649;BME280;21768;48.562;13.414;2023-04-28T13:03:46;97127.91;;;13.41;70.64
35649;BME280;21768;48.562;13.414;2023-04-28T13:06:12;97143.13;;;13.41;70.82
35649;BME280;21768;48.562;13.414;2023-04-28T13:08:38;97137.97;;;13.39;70.43
35649;BME280;21768;48.562;13.414;2023-04-28T13:11:03;97144.13;;;13.44;70.74
35649;BME280;21768;48.562;13.414;2023-04-28T13:13:29;97142.72;;;13.49;70.91
35649;BME280;21768;48.562;13.414;2023-04-28T13:15:55;97152.13;;;13.52;71.04
35649;BME280;21768;48.562;13.414;2023-04-28T13:18:20;97146.50;;;13.57;70.71
35649;BME280;21768;48.562;13.414;2023-04-28T13:20:47;97135.56;;;13.58;70.45
35649;BME280;21768;48.562;13.414;2023-04-28T13:23:13;97144.03;;;13.59;70.38
35649;BME280;21768;48.562;13.414;2023-04-28T13:25:38;97136.22;;;13.54;70.38
35649;BME280;21768;48.562;13.414;2023-04-28T13:28:04;97142.78;;;13.51;70.38
35649;BME280;21768;48.562;13.414;2023-04-28T13:30:29;97141.69;;;13.46;70.40
35649;BME280;21768;48.562;13.414;2023-04-28T13:32:54;97141.38;;;13.40;70.43